• Join FlightAware (Why Join?)
  • Login
  • US Flag 
08:35AM EST


 

Airport Tracker/Info


-or-


 

Live Flight TrackerFlight Track Log ✈ VH-FJP ✈ 16-May-2013 ✈ YABA / ALH - YPJT / JAD

Flight Track Log - Related Links

Times and Time Zones

All times are in EDT time to prevent confusion due to time zone crossing. See the VH-FJP flight status page for this flight to view local times or setup timezone preferences in your user account.

Time Position Orientation Groundspeed Altitude Reporting Facility
EDT Latitude Longitude Course Direction KTS MPH feet Rate Location/Type
05:05AM -34.9500 117.8099 333° Northwest 30,000  Level Aus ATC (Calculated)
05:06AM -34.8935 117.7736 333° Northwest 30,000 -600 Level Aus ATC (Calculated)
05:08AM -34.7738 117.6970 332° Northwest  Level FlightAware Approximate
05:08AM -34.7240 117.6652 333° Northwest 30,000  Level Aus ATC (Calculated)
05:10AM -34.6063 117.5902 332° Northwest  Level FlightAware Approximate
05:11AM -34.5409 117.5486 332° Northwest  Level FlightAware Approximate
05:11AM -34.5543 117.5571 334° Northwest 30,000  Level Aus ATC (Calculated)
05:12AM -34.4978 117.5212 335° Northwest 30,000 -1,620 Level Aus ATC (Calculated)
05:13AM -34.4412 117.4854 337° Northwest 30,000 -2,100 Level Aus ATC (Calculated)
05:14AM -34.3846 117.4495 105° East 30,000 -3,420 Level Aus ATC (Calculated)
05:14AM -34.3863 117.4575 332° Northwest 267 307 24,900 -3,720 Descending Aus ATC (RADAR)
05:15AM -34.3534 117.4361 332° Northwest 269 310 25,700 1,440 Climbing Aus ATC (RADAR)
05:15AM -34.3133 117.4126 334° Northwest 274 315 26,500 1,740 Climbing Aus ATC (RADAR)
05:16AM -34.2579 117.3781 333° Northwest 268 308 28,200 1,920 Climbing Aus ATC (RADAR)
05:17AM -34.2321 117.3591 329° Northwest 261 300 28,900 2,100 Climbing Aus ATC (RADAR)
05:17AM -34.1897 117.3324 332° Northwest 253 291 30,500 1,320 Climbing Aus ATC (RADAR)
05:18AM -34.1300 117.2937 332° Northwest 270 311 31,000 300 Climbing Aus ATC (RADAR)
05:19AM -34.0927 117.2717 334° Northwest 294 338 31,000  Level Aus ATC (RADAR)
05:20AM -34.0281 117.2290 331° Northwest 316 364 31,000  Level Aus ATC (RADAR)
05:20AM -33.9958 117.2086 332° Northwest 312 359 31,000  Level Aus ATC (RADAR)
05:20AM -33.9505 117.1791 332° Northwest 311 358 31,000  Level Aus ATC (RADAR)
05:21AM -33.8789 117.1341 332° Northwest 313 360 31,000  Level Aus ATC (RADAR)
05:22AM -33.8462 117.1142 333° Northwest 314 361 31,000  Level Aus ATC (RADAR)
05:22AM -33.8000 117.0879 335° Northwest 314 361 31,000  Level Aus ATC (RADAR)
05:23AM -33.7357 117.0470 332° Northwest 310 357 31,000  Level Aus ATC (RADAR)
05:24AM -33.6905 117.0188 333° Northwest 309 356 31,000  Level Aus ATC (RADAR)
05:25AM -33.6325 116.9809 331° Northwest 312 359 31,000  Level Aus ATC (RADAR)
05:25AM -33.5937 116.9559 332° Northwest 314 361 31,000  Level Aus ATC (RADAR)
05:26AM -33.5476 116.9287 334° Northwest 315 362 31,000  Level Aus ATC (RADAR)
05:27AM -33.4760 116.8834 332° Northwest 313 360 31,000  Level Aus ATC (RADAR)
05:27AM -33.4430 116.8644 334° Northwest 310 357 31,000  Level Aus ATC (RADAR)
05:28AM -33.3977 116.8355 332° Northwest 312 359 31,000  Level Aus ATC (RADAR)
05:28AM -33.3324 116.7951 333° Northwest 313 360 31,000  Level Aus ATC (RADAR)
05:29AM -33.2865 116.7669 333° Northwest 317 365 31,000 -120 Level Aus ATC (RADAR)
05:30AM -33.2278 116.7309 333° Northwest 313 360 30,900 -840 Descending Aus ATC (RADAR)
05:30AM -33.1945 116.7109 333° Northwest 313 360 30,100 -1,680 Descending Aus ATC (RADAR)
05:31AM -33.1487 116.6829 333° Northwest 310 357 29,200 -1,620 Descending Aus ATC (RADAR)
05:32AM -33.0791 116.6392 332° Northwest 302 348 27,700 -1,680 Descending Aus ATC (RADAR)
05:32AM -33.0481 116.6208 334° Northwest 297 342 27,000 -1,620 Descending Aus ATC (RADAR)
05:33AM -33.0056 116.5950 333° Northwest 291 335 26,100 -1,560 Descending Aus ATC (RADAR)
05:33AM -32.9465 116.5580 332° Northwest 282 325 24,800 -1,560 Descending Aus ATC (RADAR)
05:34AM -32.9052 116.5340 334° Northwest 279 321 23,900 -1,500 Descending Aus ATC (RADAR)
05:35AM -32.8462 116.4978 333° Northwest 281 323 22,700 -1,560 Descending Aus ATC (RADAR)
05:35AM -32.8166 116.4806 334° Northwest 281 323 22,000 -1,500 Descending Aus ATC (RADAR)
05:36AM -32.7758 116.4547 332° Northwest 282 325 21,200 -1,500 Descending Aus ATC (RADAR)
05:37AM -32.7063 116.4133 333° Northwest 272 313 19,700 -1,500 Descending Aus ATC (RADAR)
05:37AM -32.6830 116.4000 334° Northwest 274 315 19,200 -1,560 Descending Aus ATC (RADAR)
05:38AM -32.6423 116.3752 333° Northwest 277 319 18,300 -1,500 Descending Aus ATC (RADAR)
05:39AM -32.5849 116.3412 333° Northwest 272 313 17,100 -1,440 Descending Aus ATC (RADAR)
05:39AM -32.5458 116.3172 333° Northwest 267 307 16,300 -1,200 Descending Aus ATC (RADAR)
05:40AM -32.4975 116.2880 333° Northwest 253 291 15,500 -1,140 Descending Aus ATC (RADAR)
05:40AM -32.4711 116.2725 334° Northwest 250 288 15,000 -1,260 Descending Aus ATC (RADAR)
05:41AM -32.4345 116.2500 333° Northwest 249 287 14,300 -1,440 Descending Aus ATC (RADAR)
05:42AM -32.3686 116.1922 323° Northwest 247 284 12,600 -1,800 Descending Aus ATC (RADAR)
05:43AM -32.3552 116.1606 297° West 245 282 11,500 -2,760 Descending Aus ATC (RADAR)
05:43AM -32.3402 116.1234 296° West 237 273 10,100 -2,760 Descending Aus ATC (RADAR)
05:44AM -32.3128 116.0750 304° West 229 264 8,100 -2,340 Descending Aus ATC (RADAR)
05:44AM -32.2811 116.0511 327° Northwest 225 259 7,000 -840 Descending Aus ATC (RADAR)
05:45AM -32.2393 116.0200 328° Northwest 236 272 7,000  Level Aus ATC (RADAR)
05:46AM -32.2115 115.9997 328° Northwest 233 268 7,000  Level Aus ATC (RADAR)
05:46AM -32.1893 115.9829 327° Northwest 226 260 7,000 -120 Level Aus ATC (RADAR)
05:47AM -32.1364 115.9434 328° Northwest 220 253 6,900 -540 Descending Aus ATC (RADAR)
05:48AM -32.1116 115.9257 329° Northwest 205 236 6,200 -840 Descending Aus ATC (RADAR)
05:48AM -32.0866 115.9058 326° Northwest 182 209 6,000 -360 Descending Aus ATC (RADAR)